sensor_id;sensor_type;location;lat;lon;timestamp;pressure;altitude;pressure_sealevel;temperature;humidity
7888;BME280;3989;48.810;9.208;2023-07-16T00:00:12;98599.03;;;19.21;100.00
7888;BME280;3989;48.810;9.208;2023-07-16T00:02:40;98572.75;;;18.93;100.00
7888;BME280;3989;48.810;9.208;2023-07-16T00:05:07;98557.22;;;18.65;100.00
7888;BME280;3989;48.810;9.208;2023-07-16T00:07:34;98579.34;;;18.74;100.00
7888;BME280;3989;48.810;9.208;2023-07-16T00:10:01;98635.13;;;19.03;100.00
7888;BME280;3989;48.810;9.208;2023-07-16T00:12:27;98626.34;;;18.96;100.00
7888;BME280;3989;48.810;9.208;2023-07-16T00:14:55;98613.41;;;18.98;100.00
7888;BME280;3989;48.810;9.208;2023-07-16T00:17:22;98604.00;;;18.77;100.00
7888;BME280;3989;48.810;9.208;2023-07-16T00:19:49;98482.69;;;18.00;100.00
7888;BME280;3989;48.810;9.208;2023-07-16T00:22:15;98635.06;;;18.86;100.00
7888;BME280;3989;48.810;9.208;2023-07-16T00:24:42;98511.59;;;18.11;100.00
7888;BME280;3989;48.810;9.208;2023-07-16T00:27:09;98564.25;;;18.43;100.00
7888;BME280;3989;48.810;9.208;2023-07-16T00:29:35;98483.88;;;17.92;100.00
7888;BME280;3989;48.810;9.208;2023-07-16T00:32:03;98623.16;;;18.64;100.00
7888;BME280;3989;48.810;9.208;2023-07-16T00:34:30;98532.03;;;17.95;100.00
7888;BME280;3989;48.810;9.208;2023-07-16T00:36:57;98614.66;;;18.38;100.00
7888;BME280;3989;48.810;9.208;2023-07-16T00:39:27;98609.00;;;18.27;100.00
7888;BME280;3989;48.810;9.208;2023-07-16T00:41:53;98603.69;;;18.32;100.00
7888;BME280;3989;48.810;9.208;2023-07-16T00:44:21;98638.91;;;18.56;100.00
7888;BME280;3989;48.810;9.208;2023-07-16T00:46:47;98647.38;;;18.59;100.00
7888;BME280;3989;48.810;9.208;2023-07-16T00:49:15;98653.69;;;18.53;100.00
7888;BME280;3989;48.810;9.208;2023-07-16T00:51:42;98649.00;;;18.60;100.00
7888;BME280;3989;48.810;9.208;2023-07-16T00:54:09;98605.59;;;18.44;100.00
7888;BME280;3989;48.810;9.208;2023-07-16T00:56:37;98645.72;;;18.58;100.00
7888;BME280;3989;48.810;9.208;2023-07-16T00:59:03;98439.38;;;17.42;100.00
7888;BME280;3989;48.810;9.208;2023-07-16T01:01:30;98568.09;;;18.24;100.00
7888;BME280;3989;48.810;9.208;2023-07-16T01:03:57;98625.41;;;18.67;100.00
7888;BME280;3989;48.810;9.208;2023-07-16T01:06:30;98569.88;;;18.18;100.00
7888;BME280;3989;48.810;9.208;2023-07-16T01:09:02;98604.41;;;18.40;100.00
7888;BME280;3989;48.810;9.208;2023-07-16T01:11:30;98649.38;;;18.64;100.00
7888;BME280;3989;48.810;9.208;2023-07-16T01:13:58;98606.75;;;18.24;100.00
7888;BME280;3989;48.810;9.208;2023-07-16T01:16:25;98534.06;;;17.70;100.00
7888;BME280;3989;48.810;9.208;2023-07-16T01:18:52;98654.47;;;18.42;100.00
7888;BME280;3989;48.810;9.208;2023-07-16T01:21:20;98685.66;;;18.56;100.00
7888;BME280;3989;48.810;9.208;2023-07-16T01:24:10;98681.44;;;18.60;100.00
7888;BME280;3989;48.810;9.208;2023-07-16T01:26:52;98660.13;;;18.41;100.00
7888;BME280;3989;48.810;9.208;2023-07-16T01:29:29;98594.28;;;18.12;100.00
7888;BME280;3989;48.810;9.208;2023-07-16T01:31:59;98515.75;;;17.72;100.00
7888;BME280;3989;48.810;9.208;2023-07-16T01:34:28;98486.22;;;17.47;100.00
7888;BME280;3989;48.810;9.208;2023-07-16T01:36:56;98612.72;;;18.26;100.00
7888;BME280;3989;48.810;9.208;2023-07-16T01:39:22;98593.81;;;18.15;100.00
7888;BME280;3989;48.810;9.208;2023-07-16T01:41:49;98686.97;;;18.54;100.00
7888;BME280;3989;48.810;9.208;2023-07-16T01:44:16;98680.19;;;18.03;100.00
7888;BME280;3989;48.810;9.208;2023-07-16T01:46:45;98695.34;;;18.04;100.00
7888;BME280;3989;48.810;9.208;2023-07-16T01:49:15;98601.03;;;17.43;100.00
7888;BME280;3989;48.810;9.208;2023-07-16T01:51:42;98613.56;;;17.56;100.00
7888;BME280;3989;48.810;9.208;2023-07-16T01:54:08;98683.88;;;17.91;100.00
7888;BME280;3989;48.810;9.208;2023-07-16T01:56:35;98586.94;;;17.23;100.00
7888;BME280;3989;48.810;9.208;2023-07-16T01:59:01;98610.03;;;17.37;100.00
7888;BME280;3989;48.810;9.208;2023-07-16T02:01:28;98676.19;;;17.58;100.00
7888;BME280;3989;48.810;9.208;2023-07-16T02:03:56;98699.50;;;17.52;100.00
7888;BME280;3989;48.810;9.208;2023-07-16T02:06:22;98721.53;;;17.49;100.00
7888;BME280;3989;48.810;9.208;2023-07-16T02:08:49;98706.63;;;17.47;100.00
7888;BME280;3989;48.810;9.208;2023-07-16T02:11:15;98536.72;;;16.31;100.00
7888;BME280;3989;48.810;9.208;2023-07-16T02:13:42;98718.06;;;17.42;100.00
7888;BME280;3989;48.810;9.208;2023-07-16T02:16:08;98636.16;;;17.00;100.00
7888;BME280;3989;48.810;9.208;2023-07-16T02:18:35;98688.00;;;17.39;100.00
7888;BME280;3989;48.810;9.208;2023-07-16T02:21:03;98548.78;;;16.47;100.00
7888;BME280;3989;48.810;9.208;2023-07-16T02:23:30;98669.50;;;17.24;100.00
7888;BME280;3989;48.810;9.208;2023-07-16T02:25:56;98583.28;;;16.81;100.00
7888;BME280;3989;48.810;9.208;2023-07-16T02:28:23;98658.94;;;17.22;100.00
7888;BME280;3989;48.810;9.208;2023-07-16T02:30:49;98505.88;;;16.27;100.00
7888;BME280;3989;48.810;9.208;2023-07-16T02:33:16;98711.63;;;17.43;100.00
7888;BME280;3989;48.810;9.208;2023-07-16T02:35:46;98671.25;;;17.18;100.00
7888;BME280;3989;48.810;9.208;2023-07-16T02:38:14;98710.41;;;17.39;100.00
7888;BME280;3989;48.810;9.208;2023-07-16T02:40:42;98671.63;;;17.22;100.00
7888;BME280;3989;48.810;9.208;2023-07-16T02:43:09;98708.19;;;17.36;100.00
7888;BME280;3989;48.810;9.208;2023-07-16T02:45:36;98701.13;;;17.35;100.00
7888;BME280;3989;48.810;9.208;2023-07-16T02:48:04;98493.19;;;16.09;100.00
7888;BME280;3989;48.810;9.208;2023-07-16T02:50:33;98636.59;;;16.97;100.00
7888;BME280;3989;48.810;9.208;2023-07-16T02:53:00;98661.94;;;16.96;100.00
7888;BME280;3989;48.810;9.208;2023-07-16T02:55:28;98533.97;;;16.38;100.00
7888;BME280;3989;48.810;9.208;2023-07-16T02:57:55;98669.28;;;17.25;100.00
7888;BME280;3989;48.810;9.208;2023-07-16T03:00:22;98631.59;;;17.01;100.00
7888;BME280;3989;48.810;9.208;2023-07-16T03:02:48;98646.81;;;17.13;100.00
7888;BME280;3989;48.810;9.208;2023-07-16T03:05:15;98601.81;;;16.71;100.00
7888;BME280;3989;48.810;9.208;2023-07-16T03:07:42;98702.31;;;17.21;100.00
7888;BME280;3989;48.810;9.208;2023-07-16T03:10:09;98738.41;;;17.45;100.00
7888;BME280;3989;48.810;9.208;2023-07-16T03:12:37;98681.03;;;17.13;100.00
7888;BME280;3989;48.810;9.208;2023-07-16T03:15:05;98641.16;;;16.97;100.00
7888;BME280;3989;48.810;9.208;2023-07-16T03:17:31;98604.44;;;16.59;100.00
7888;BME280;3989;48.810;9.208;2023-07-16T03:19:58;98597.03;;;16.48;100.00
7888;BME280;3989;48.810;9.208;2023-07-16T03:22:25;98615.66;;;16.56;100.00
7888;BME280;3989;48.810;9.208;2023-07-16T03:24:51;98765.38;;;17.45;100.00
7888;BME280;3989;48.810;9.208;2023-07-16T03:27:18;98660.06;;;16.72;100.00
7888;BME280;3989;48.810;9.208;2023-07-16T03:29:46;98615.81;;;16.61;100.00
7888;BME280;3989;48.810;9.208;2023-07-16T03:32:13;98746.50;;;17.45;100.00
7888;BME280;3989;48.810;9.208;2023-07-16T03:34:40;98689.28;;;17.18;100.00
7888;BME280;3989;48.810;9.208;2023-07-16T03:37:07;98714.25;;;17.31;100.00
7888;BME280;3989;48.810;9.208;2023-07-16T03:39:33;98656.16;;;16.68;100.00
7888;BME280;3989;48.810;9.208;2023-07-16T03:42:00;98661.59;;;16.61;100.00
7888;BME280;3989;48.810;9.208;2023-07-16T03:44:26;98785.44;;;17.30;100.00
7888;BME280;3989;48.810;9.208;2023-07-16T03:46:54;98735.06;;;17.00;100.00
7888;BME280;3989;48.810;9.208;2023-07-16T03:49:21;98758.91;;;17.27;100.00
7888;BME280;3989;48.810;9.208;2023-07-16T03:51:48;98736.78;;;16.94;100.00
7888;BME280;3989;48.810;9.208;2023-07-16T03:54:14;98820.19;;;17.39;100.00
7888;BME280;3989;48.810;9.208;2023-07-16T03:56:41;98819.41;;;17.38;100.00
7888;BME280;3989;48.810;9.208;2023-07-16T03:59:07;98850.50;;;17.41;100.00
7888;BME280;3989;48.810;9.208;2023-07-16T04:01:34;98769.75;;;16.96;100.00
7888;BME280;3989;48.810;9.208;2023-07-16T04:04:02;98737.53;;;16.83;100.00
7888;BME280;3989;48.810;9.208;2023-07-16T04:06:29;98845.94;;;17.41;100.00
7888;BME280;3989;48.810;9.208;2023-07-16T04:08:55;98667.84;;;16.31;100.00
7888;BME280;3989;48.810;9.208;2023-07-16T04:11:22;98845.88;;;17.48;100.00
7888;BME280;3989;48.810;9.208;2023-07-16T04:13:49;98696.88;;;16.53;100.00
7888;BME280;3989;48.810;9.208;2023-07-16T04:16:15;98779.81;;;17.07;100.00
7888;BME280;3989;48.810;9.208;2023-07-16T04:18:42;98690.66;;;16.53;100.00
7888;BME280;3989;48.810;9.208;2023-07-16T04:21:10;98741.69;;;16.79;100.00
7888;BME280;3989;48.810;9.208;2023-07-16T04:23:37;98756.09;;;16.91;100.00
7888;BME280;3989;48.810;9.208;2023-07-16T04:26:03;98836.00;;;17.35;100.00
7888;BME280;3989;48.810;9.208;2023-07-16T04:28:30;98729.34;;;16.65;100.00
7888;BME280;3989;48.810;9.208;2023-07-16T04:30:57;98672.50;;;16.42;100.00
7888;BME280;3989;48.810;9.208;2023-07-16T04:33:24;98827.81;;;17.23;100.00
7888;BME280;3989;48.810;9.208;2023-07-16T04:35:51;98802.38;;;17.13;100.00
7888;BME280;3989;48.810;9.208;2023-07-16T04:38:19;98728.38;;;16.59;100.00
7888;BME280;3989;48.810;9.208;2023-07-16T04:40:46;98753.22;;;16.61;100.00
7888;BME280;3989;48.810;9.208;2023-07-16T04:43:12;98855.38;;;17.25;100.00
7888;BME280;3989;48.810;9.208;2023-07-16T04:45:39;98899.66;;;17.43;100.00
7888;BME280;3989;48.810;9.208;2023-07-16T04:48:06;98862.91;;;17.42;100.00
7888;BME280;3989;48.810;9.208;2023-07-16T04:50:32;98810.06;;;17.09;100.00
7888;BME280;3989;48.810;9.208;2023-07-16T04:52:59;98858.91;;;17.51;100.00
7888;BME280;3989;48.810;9.208;2023-07-16T04:55:27;98876.44;;;17.66;100.00
7888;BME280;3989;48.810;9.208;2023-07-16T04:57:54;98876.66;;;17.65;100.00
7888;BME280;3989;48.810;9.208;2023-07-16T05:00:22;98879.66;;;17.57;100.00
7888;BME280;3989;48.810;9.208;2023-07-16T05:02:48;98846.91;;;17.47;100.00
7888;BME280;3989;48.810;9.208;2023-07-16T05:05:15;98765.13;;;17.03;100.00
7888;BME280;3989;48.810;9.208;2023-07-16T05:07:42;98786.44;;;17.11;100.00
7888;BME280;3989;48.810;9.208;2023-07-16T05:10:09;98856.88;;;17.71;100.00
7888;BME280;3989;48.810;9.208;2023-07-16T05:12:37;98694.56;;;16.63;100.00
7888;BME280;3989;48.810;9.208;2023-07-16T05:15:04;98860.06;;;17.86;100.00
7888;BME280;3989;48.810;9.208;2023-07-16T05:17:31;98871.09;;;18.03;100.00
7888;BME280;3989;48.810;9.208;2023-07-16T05:19:58;98840.94;;;17.88;100.00
7888;BME280;3989;48.810;9.208;2023-07-16T05:22:24;98865.63;;;18.09;100.00
7888;BME280;3989;48.810;9.208;2023-07-16T05:24:51;98886.31;;;18.33;100.00
7888;BME280;3989;48.810;9.208;2023-07-16T05:27:17;98661.56;;;16.93;100.00
7888;BME280;3989;48.810;9.208;2023-07-16T05:29:45;98868.41;;;18.21;100.00
7888;BME280;3989;48.810;9.208;2023-07-16T05:32:13;98808.22;;;17.77;100.00
7888;BME280;3989;48.810;9.208;2023-07-16T05:34:39;98800.75;;;17.79;100.00
7888;BME280;3989;48.810;9.208;2023-07-16T05:37:06;98888.38;;;18.38;100.00
7888;BME280;3989;48.810;9.208;2023-07-16T05:39:33;98906.97;;;18.46;100.00
7888;BME280;3989;48.810;9.208;2023-07-16T05:41:59;98900.97;;;18.44;100.00
7888;BME280;3989;48.810;9.208;2023-07-16T05:44:27;98847.69;;;18.15;100.00
7888;BME280;3989;48.810;9.208;2023-07-16T05:46:55;98906.56;;;18.79;100.00
7888;BME280;3989;48.810;9.208;2023-07-16T05:49:22;98811.50;;;18.34;100.00
7888;BME280;3989;48.810;9.208;2023-07-16T05:51:48;98925.16;;;19.05;100.00
7888;BME280;3989;48.810;9.208;2023-07-16T05:54:15;98929.16;;;19.03;100.00
7888;BME280;3989;48.810;9.208;2023-07-16T05:56:41;98763.50;;;18.00;100.00
7888;BME280;3989;48.810;9.208;2023-07-16T05:59:08;98770.13;;;18.22;100.00
7888;BME280;3989;48.810;9.208;2023-07-16T06:01:35;98923.06;;;19.49;100.00
7888;BME280;3989;48.810;9.208;2023-07-16T06:04:03;98854.16;;;19.21;100.00
7888;BME280;3989;48.810;9.208;2023-07-16T06:06:30;98664.97;;;18.20;100.00
7888;BME280;3989;48.810;9.208;2023-07-16T06:08:57;98808.88;;;19.28;100.00
7888;BME280;3989;48.810;9.208;2023-07-16T06:11:23;98912.19;;;19.90;100.00
7888;BME280;3989;48.810;9.208;2023-07-16T06:13:52;98907.78;;;19.77;100.00
7888;BME280;3989;48.810;9.208;2023-07-16T06:16:19;98908.16;;;19.58;100.00
7888;BME280;3989;48.810;9.208;2023-07-16T06:18:45;98889.22;;;19.28;100.00
7888;BME280;3989;48.810;9.208;2023-07-16T06:21:13;98936.53;;;19.37;100.00
7888;BME280;3989;48.810;9.208;2023-07-16T06:23:40;98864.06;;;18.86;100.00
7888;BME280;3989;48.810;9.208;2023-07-16T06:26:07;98932.75;;;19.26;100.00
7888;BME280;3989;48.810;9.208;2023-07-16T06:28:33;98937.84;;;19.34;100.00
7888;BME280;3989;48.810;9.208;2023-07-16T06:31:00;98932.28;;;19.29;100.00
7888;BME280;3989;48.810;9.208;2023-07-16T06:33:26;98786.41;;;18.45;100.00
7888;BME280;3989;48.810;9.208;2023-07-16T06:35:53;98837.38;;;18.90;100.00
7888;BME280;3989;48.810;9.208;2023-07-16T06:38:23;98765.78;;;18.51;100.00
7888;BME280;3989;48.810;9.208;2023-07-16T06:40:53;98933.22;;;19.88;100.00
7888;BME280;3989;48.810;9.208;2023-07-16T06:43:23;98630.22;;;18.12;100.00
7888;BME280;3989;48.810;9.208;2023-07-16T06:45:50;98818.22;;;19.56;100.00
7888;BME280;3989;48.810;9.208;2023-07-16T06:48:17;98930.03;;;20.49;100.00
7888;BME280;3989;48.810;9.208;2023-07-16T06:50:44;98936.38;;;20.66;100.00
7888;BME280;3989;48.810;9.208;2023-07-16T06:53:10;98830.72;;;20.20;100.00
7888;BME280;3989;48.810;9.208;2023-07-16T06:55:38;98928.19;;;20.78;100.00
7888;BME280;3989;48.810;9.208;2023-07-16T06:58:05;98918.88;;;21.14;100.00
7888;BME280;3989;48.810;9.208;2023-07-16T07:00:31;98940.06;;;21.28;100.00
7888;BME280;3989;48.810;9.208;2023-07-16T07:02:58;98910.22;;;21.00;100.00
7888;BME280;3989;48.810;9.208;2023-07-16T07:05:25;98808.94;;;20.38;100.00
7888;BME280;3989;48.810;9.208;2023-07-16T07:07:51;98931.41;;;21.15;100.00
7888;BME280;3989;48.810;9.208;2023-07-16T07:10:18;98943.19;;;21.09;100.00
7888;BME280;3989;48.810;9.208;2023-07-16T07:12:46;98898.13;;;20.79;100.00
7888;BME280;3989;48.810;9.208;2023-07-16T07:15:13;98915.19;;;20.91;100.00
7888;BME280;3989;48.810;9.208;2023-07-16T07:17:39;98877.31;;;20.28;100.00
7888;BME280;3989;48.810;9.208;2023-07-16T07:20:09;98887.63;;;20.20;100.00
7888;BME280;3989;48.810;9.208;2023-07-16T07:22:35;98935.94;;;20.58;100.00
7888;BME280;3989;48.810;9.208;2023-07-16T07:25:02;98891.69;;;20.29;100.00
7888;BME280;3989;48.810;9.208;2023-07-16T07:27:29;98710.41;;;19.18;100.00
7888;BME280;3989;48.810;9.208;2023-07-16T07:29:57;98827.84;;;19.98;100.00
7888;BME280;3989;48.810;9.208;2023-07-16T07:32:23;98728.66;;;19.22;100.00
7888;BME280;3989;48.810;9.208;2023-07-16T07:34:50;98914.03;;;20.36;100.00
7888;BME280;3989;48.810;9.208;2023-07-16T07:37:16;98883.50;;;20.40;100.00
7888;BME280;3989;48.810;9.208;2023-07-16T07:39:43;98941.41;;;21.14;100.00
7888;BME280;3989;48.810;9.208;2023-07-16T07:42:12;98844.50;;;20.70;100.00
7888;BME280;3989;48.810;9.208;2023-07-16T07:44:39;98828.13;;;20.93;100.00
7888;BME280;3989;48.810;9.208;2023-07-16T07:47:07;98951.78;;;21.62;100.00
7888;BME280;3989;48.810;9.208;2023-07-16T07:49:34;98901.03;;;20.89;100.00
7888;BME280;3989;48.810;9.208;2023-07-16T07:52:01;98903.81;;;21.51;100.00
7888;BME280;3989;48.810;9.208;2023-07-16T07:54:27;98940.75;;;21.69;100.00
7888;BME280;3989;48.810;9.208;2023-07-16T07:56:54;98912.03;;;20.83;100.00
7888;BME280;3989;48.810;9.208;2023-07-16T07:59:20;98922.72;;;20.50;100.00
7888;BME280;3989;48.810;9.208;2023-07-16T08:01:47;98947.69;;;20.63;100.00
7888;BME280;3989;48.810;9.208;2023-07-16T08:04:15;98959.38;;;20.64;100.00
7888;BME280;3989;48.810;9.208;2023-07-16T08:06:41;98924.06;;;20.35;100.00
7888;BME280;3989;48.810;9.208;2023-07-16T08:09:08;98904.03;;;20.36;100.00
7888;BME280;3989;48.810;9.208;2023-07-16T08:11:35;98962.34;;;20.90;100.00
7888;BME280;3989;48.810;9.208;2023-07-16T08:14:01;98928.47;;;21.05;100.00
7888;BME280;3989;48.810;9.208;2023-07-16T08:16:28;98905.25;;;20.97;100.00
7888;BME280;3989;48.810;9.208;2023-07-16T08:18:54;98955.50;;;21.00;100.00
7888;BME280;3989;48.810;9.208;2023-07-16T08:21:22;98928.16;;;20.61;100.00
7888;BME280;3989;48.810;9.208;2023-07-16T08:23:49;98953.16;;;20.40;100.00
7888;BME280;3989;48.810;9.208;2023-07-16T08:26:16;98945.16;;;20.33;100.00
7888;BME280;3989;48.810;9.208;2023-07-16T08:28:42;98967.00;;;20.78;100.00
7888;BME280;3989;48.810;9.208;2023-07-16T08:31:10;98933.63;;;20.78;100.00
7888;BME280;3989;48.810;9.208;2023-07-16T08:33:36;98942.84;;;21.33;100.00
7888;BME280;3989;48.810;9.208;2023-07-16T08:36:03;98923.16;;;21.55;100.00
7888;BME280;3989;48.810;9.208;2023-07-16T08:38:31;98728.09;;;21.13;100.00
7888;BME280;3989;48.810;9.208;2023-07-16T08:40:59;98925.09;;;23.39;100.00
7888;BME280;3989;48.810;9.208;2023-07-16T08:43:26;98883.84;;;23.84;100.00
7888;BME280;3989;48.810;9.208;2023-07-16T08:45:52;98943.00;;;23.84;89.05
7888;BME280;3989;48.810;9.208;2023-07-16T08:48:19;98946.25;;;23.81;81.47
7888;BME280;3989;48.810;9.208;2023-07-16T08:50:47;98948.25;;;23.64;69.65
7888;BME280;3989;48.810;9.208;2023-07-16T08:53:15;98948.75;;;23.87;77.85
7888;BME280;3989;48.810;9.208;2023-07-16T08:55:43;98914.47;;;23.96;64.35
7888;BME280;3989;48.810;9.208;2023-07-16T08:58:12;98909.41;;;23.78;68.40
7888;BME280;3989;48.810;9.208;2023-07-16T09:00:41;98959.13;;;24.22;66.95
7888;BME280;3989;48.810;9.208;2023-07-16T09:03:10;98955.94;;;24.87;63.12
7888;BME280;3989;48.810;9.208;2023-07-16T09:05:38;98955.53;;;24.69;50.24
7888;BME280;3989;48.810;9.208;2023-07-16T09:08:05;98933.41;;;24.55;57.27
7888;BME280;3989;48.810;9.208;2023-07-16T09:10:32;98928.47;;;24.57;54.03
7888;BME280;3989;48.810;9.208;2023-07-16T09:13:00;98775.09;;;23.78;53.93
7888;BME280;3989;48.810;9.208;2023-07-16T09:15:28;98962.91;;;25.25;53.53
7888;BME280;3989;48.810;9.208;2023-07-16T09:17:56;98949.31;;;25.50;52.67
7888;BME280;3989;48.810;9.208;2023-07-16T09:20:23;98949.53;;;25.29;51.46
7888;BME280;3989;48.810;9.208;2023-07-16T09:22:50;98941.13;;;25.50;53.01
7888;BME280;3989;48.810;9.208;2023-07-16T09:25:18;98907.50;;;25.70;51.12
7888;BME280;3989;48.810;9.208;2023-07-16T09:27:48;98960.28;;;25.71;50.67
7888;BME280;3989;48.810;9.208;2023-07-16T09:30:16;98952.34;;;25.79;51.31
7888;BME280;3989;48.810;9.208;2023-07-16T09:32:43;98923.91;;;25.75;51.43
7888;BME280;3989;48.810;9.208;2023-07-16T09:35:11;98957.81;;;25.94;47.87
7888;BME280;3989;48.810;9.208;2023-07-16T09:37:39;98927.09;;;25.27;49.96
7888;BME280;3989;48.810;9.208;2023-07-16T09:40:07;98947.84;;;25.18;50.19
7888;BME280;3989;48.810;9.208;2023-07-16T09:42:36;98944.91;;;25.44;51.51
7888;BME280;3989;48.810;9.208;2023-07-16T09:45:05;98939.75;;;25.88;49.51
7888;BME280;3989;48.810;9.208;2023-07-16T09:47:33;98959.66;;;25.48;49.45
7888;BME280;3989;48.810;9.208;2023-07-16T09:50:00;98957.16;;;25.22;50.17
7888;BME280;3989;48.810;9.208;2023-07-16T09:52:27;98909.59;;;25.18;49.21
7888;BME280;3989;48.810;9.208;2023-07-16T09:54:55;98874.94;;;25.28;50.15
7888;BME280;3989;48.810;9.208;2023-07-16T09:57:23;98948.50;;;25.55;50.11
7888;BME280;3989;48.810;9.208;2023-07-16T09:59:52;98948.78;;;25.58;50.42
7888;BME280;3989;48.810;9.208;2023-07-16T10:02:20;98913.78;;;25.91;48.67
7888;BME280;3989;48.810;9.208;2023-07-16T10:04:48;98959.44;;;26.21;46.41
7888;BME280;3989;48.810;9.208;2023-07-16T10:07:19;98939.75;;;26.29;48.15
7888;BME280;3989;48.810;9.208;2023-07-16T10:09:51;98933.34;;;26.63;47.00
7888;BME280;3989;48.810;9.208;2023-07-16T10:12:20;98935.94;;;26.30;47.82
7888;BME280;3989;48.810;9.208;2023-07-16T10:14:48;98842.94;;;26.04;46.35
7888;BME280;3989;48.810;9.208;2023-07-16T10:17:16;98954.31;;;26.98;45.84
7888;BME280;3989;48.810;9.208;2023-07-16T10:19:49;98842.44;;;25.72;46.07
7888;BME280;3989;48.810;9.208;2023-07-16T10:22:17;98951.81;;;25.77;45.63
7888;BME280;3989;48.810;9.208;2023-07-16T10:24:43;98769.66;;;24.45;47.84
7888;BME280;3989;48.810;9.208;2023-07-16T10:27:13;98948.22;;;26.27;48.05
7888;BME280;3989;48.810;9.208;2023-07-16T10:29:40;98947.84;;;26.64;47.00
7888;BME280;3989;48.810;9.208;2023-07-16T10:32:09;98896.00;;;25.98;45.92
7888;BME280;3989;48.810;9.208;2023-07-16T10:34:36;98878.81;;;25.88;45.19
7888;BME280;3989;48.810;9.208;2023-07-16T10:37:05;98914.88;;;26.10;45.59
7888;BME280;3989;48.810;9.208;2023-07-16T10:39:32;98936.47;;;26.32;46.20
7888;BME280;3989;48.810;9.208;2023-07-16T10:41:58;98922.75;;;26.37;44.46
7888;BME280;3989;48.810;9.208;2023-07-16T10:44:25;98911.56;;;26.08;45.25
7888;BME280;3989;48.810;9.208;2023-07-16T10:46:53;98936.88;;;26.84;44.12
7888;BME280;3989;48.810;9.208;2023-07-16T10:49:26;98905.06;;;26.88;43.05
7888;BME280;3989;48.810;9.208;2023-07-16T10:51:53;98901.28;;;27.28;42.96
7888;BME280;3989;48.810;9.208;2023-07-16T10:54:21;98881.56;;;27.26;43.86
7888;BME280;3989;48.810;9.208;2023-07-16T10:56:49;98881.72;;;26.42;45.35
7888;BME280;3989;48.810;9.208;2023-07-16T10:59:17;98913.19;;;26.34;46.32
7888;BME280;3989;48.810;9.208;2023-07-16T11:01:44;98729.06;;;25.65;45.55
7888;BME280;3989;48.810;9.208;2023-07-16T11:04:11;98940.44;;;26.75;42.93
7888;BME280;3989;48.810;9.208;2023-07-16T11:06:38;98718.97;;;25.25;42.82
7888;BME280;3989;48.810;9.208;2023-07-16T11:09:07;98899.88;;;26.87;43.24
7888;BME280;3989;48.810;9.208;2023-07-16T11:11:37;98923.16;;;26.79;42.78
7888;BME280;3989;48.810;9.208;2023-07-16T11:14:06;98925.31;;;27.41;42.15
7888;BME280;3989;48.810;9.208;2023-07-16T11:16:33;98928.94;;;28.09;41.84
7888;BME280;3989;48.810;9.208;2023-07-16T11:19:01;98927.22;;;27.85;43.10
7888;BME280;3989;48.810;9.208;2023-07-16T11:21:28;98909.28;;;26.66;45.09
7888;BME280;3989;48.810;9.208;2023-07-16T11:23:55;98889.88;;;26.52;47.12
7888;BME280;3989;48.810;9.208;2023-07-16T11:26:21;98852.63;;;26.61;45.40
7888;BME280;3989;48.810;9.208;2023-07-16T11:28:51;98841.63;;;25.77;45.23
7888;BME280;3989;48.810;9.208;2023-07-16T11:31:17;98920.56;;;26.34;48.42
7888;BME280;3989;48.810;9.208;2023-07-16T11:33:44;98863.72;;;25.95;49.32
7888;BME280;3989;48.810;9.208;2023-07-16T11:36:11;98883.47;;;25.77;50.60
7888;BME280;3989;48.810;9.208;2023-07-16T11:38:37;98927.69;;;25.39;55.36
7888;BME280;3989;48.810;9.208;2023-07-16T11:41:04;98925.19;;;25.27;56.60
7888;BME280;3989;48.810;9.208;2023-07-16T11:43:34;98865.94;;;25.38;55.23
7888;BME280;3989;48.810;9.208;2023-07-16T11:46:02;98872.22;;;25.28;53.28
7888;BME280;3989;48.810;9.208;2023-07-16T11:48:29;98889.69;;;25.22;54.35
7888;BME280;3989;48.810;9.208;2023-07-16T11:50:56;98911.56;;;25.42;54.87
7888;BME280;3989;48.810;9.208;2023-07-16T11:53:22;98907.75;;;25.79;52.12
7888;BME280;3989;48.810;9.208;2023-07-16T11:55:49;98841.34;;;25.38;48.96
7888;BME280;3989;48.810;9.208;2023-07-16T11:58:15;98909.97;;;25.97;47.91
7888;BME280;3989;48.810;9.208;2023-07-16T12:00:42;98870.63;;;25.68;48.47
7888;BME280;3989;48.810;9.208;2023-07-16T12:03:10;98866.72;;;26.19;46.82
7888;BME280;3989;48.810;9.208;2023-07-16T12:05:36;98892.94;;;27.04;45.13
7888;BME280;3989;48.810;9.208;2023-07-16T12:08:04;98891.59;;;27.46;45.76
7888;BME280;3989;48.810;9.208;2023-07-16T12:10:30;98888.69;;;27.66;43.98
7888;BME280;3989;48.810;9.208;2023-07-16T12:12:57;98889.13;;;27.49;44.45
7888;BME280;3989;48.810;9.208;2023-07-16T12:15:24;98885.66;;;27.68;43.15
7888;BME280;3989;48.810;9.208;2023-07-16T12:17:50;98804.28;;;27.29;43.36
7888;BME280;3989;48.810;9.208;2023-07-16T12:20:18;98881.66;;;27.55;44.00
7888;BME280;3989;48.810;9.208;2023-07-16T12:22:45;98866.81;;;27.22;43.66
7888;BME280;3989;48.810;9.208;2023-07-16T12:25:11;98859.22;;;27.09;44.19
7888;BME280;3989;48.810;9.208;2023-07-16T12:27:38;98866.34;;;27.05;45.06
7888;BME280;3989;48.810;9.208;2023-07-16T12:30:06;98865.53;;;27.04;45.30
7888;BME280;3989;48.810;9.208;2023-07-16T12:32:32;98854.94;;;26.93;46.21
7888;BME280;3989;48.810;9.208;2023-07-16T12:34:59;98863.22;;;27.27;45.58
7888;BME280;3989;48.810;9.208;2023-07-16T12:37:27;98832.31;;;27.55;44.56
7888;BME280;3989;48.810;9.208;2023-07-16T12:39:54;98857.56;;;27.81;43.69
7888;BME280;3989;48.810;9.208;2023-07-16T12:42:20;98851.66;;;27.69;43.62
7888;BME280;3989;48.810;9.208;2023-07-16T12:44:47;98847.28;;;27.68;43.77
7888;BME280;3989;48.810;9.208;2023-07-16T12:47:14;98840.47;;;27.89;43.64
7888;BME280;3989;48.810;9.208;2023-07-16T12:49:41;98838.06;;;27.82;43.06
7888;BME280;3989;48.810;9.208;2023-07-16T12:52:07;98856.81;;;27.75;42.96
7888;BME280;3989;48.810;9.208;2023-07-16T12:54:36;98845.31;;;27.39;44.10
7888;BME280;3989;48.810;9.208;2023-07-16T12:57:02;98858.84;;;27.59;43.25
7888;BME280;3989;48.810;9.208;2023-07-16T12:59:29;98831.69;;;27.63;43.77
7888;BME280;3989;48.810;9.208;2023-07-16T13:01:56;98796.59;;;27.65;42.74
7888;BME280;3989;48.810;9.208;2023-07-16T13:04:22;98845.41;;;28.21;42.30
7888;BME280;3989;48.810;9.208;2023-07-16T13:06:49;98829.28;;;28.14;41.06
7888;BME280;3989;48.810;9.208;2023-07-16T13:09:16;98848.19;;;27.58;42.28
7888;BME280;3989;48.810;9.208;2023-07-16T13:11:44;98787.34;;;27.22;42.85
7888;BME280;3989;48.810;9.208;2023-07-16T13:14:10;98843.13;;;27.36;43.03